Nearby METAR Reports

 

PAEN - Kenai, Alaska, USA
Distance from station: ESE 2mi, 4km
Updated: Sun, 04-Dec-2022 8:18pm AKST
Mostly cloudy
Mostly cloudy
 Wind from NNE
Wind: NNE 9 mph , 15 km/h
Temperature: 19°F , -7°C
Wind Chill: 8°F , -13°C
Dew Point: 19°F , -7°C
Humidity: 100%
Barometer: 30.29 inHg , 1025.7 hPa
Clouds: Mostly cloudy
Visibility: 10 miles , 16 km
Cloud details: Mostly cloudy 300 ft
2022/12/05 05:18 PAEN 050518Z 03008KT 10SM BKN003 M07/M07 A3029 RMK AO2 T10671072 $
PASX - Soldotna, Alaska, USA
Distance from station: SE 12mi, 19km
Updated: Sun, 04-Dec-2022 7:56pm AKST
Clear
Clear
 Wind from E
Wind: E 5 mph , 7 km/h
Temperature: 14°F , -10°C
Wind Chill: 6°F , -14°C
Dew Point: 12°F , -11°C
Humidity: 92%
Barometer: 30.31 inHg , 1026.4 hPa
Clouds: Clear
Visibility: 10 miles , 16 km
2022/12/05 04:56 PASX 050456Z AUTO 08004KT 10SM CLR M10/M11 A3031 RMK AO2 SLP272 T11001106 FZRANO
 
PANC - Anchorage Intl, Alaska, USA
Distance from station: NE 59mi, 96km
Updated: Sun, 04-Dec-2022 7:53pm AKST
Partly cloudy
Partly cloudy
 Wind from N
Wind: N 5 mph , 7 km/h
Temperature: 18°F , -8°C
Wind Chill: 11°F , -12°C
Dew Point: 18°F , -8°C
Humidity: 100%
Barometer: 30.30 inHg , 1026.1 hPa
Clouds: Partly cloudy
Visibility: 10 miles , 16 km
Cloud details: Few Clouds 8000 ft
Partly cloudy 20000 ft
2022/12/05 04:53 PANC 050453Z 36004KT 10SM FEW080 SCT200 M08/M08 A3030 RMK AO2 SLP263 T10781083
PALH - Anchorage/Lake H, Alaska, USA
Distance from station: NE 61mi, 99km
Updated: Sun, 04-Dec-2022 7:53pm AKST
Clear
Clear
 Wind from N
Wind: N 3 mph , 6 km/h
Temperature: 19°F , -7°C
Dew Point: 18°F , -8°C
Humidity: 93%
Barometer: 30.31 inHg , 1026.4 hPa
Clouds: Clear
Visibility: 10 miles , 16 km
2022/12/05 04:53 PALH 050453Z AUTO 35003KT 10SM CLR M07/M08 A3031 RMK AO2 SLP266 I1000 T10721083 TSNO $
 
PAHO - Homer, Alaska, USA
Distance from station: S 66mi, 106km
Updated: Sun, 04-Dec-2022 7:53pm AKST
Overcast
Overcast
 Wind from NE
Wind: NE 6 mph , 9 km/h
Temperature: 32°F , 0°C
Wind Chill: 26°F , -3°C
Dew Point: 27°F , -3°C
Humidity: 80%
Barometer: 30.25 inHg , 1024.4 hPa
Clouds: Overcast
Visibility: 10 miles , 16 km
Cloud details: Overcast 6000 ft
2022/12/05 04:53 PAHO 050453Z 05005KT 10SM OVC060 00/M03 A3025 RMK AO2 SLP246 T00001033
PAMR - Anchorage/Merril, Alaska, USA
Distance from station: NE 66mi, 106km
Updated: Sun, 04-Dec-2022 7:53pm AKST
Few Clouds
Few Clouds
 Wind from NNW
Wind: NNW 6 mph , 9 km/h
Temperature: 19°F , -7°C
Wind Chill: 11°F , -12°C
Dew Point: 16°F , -9°C
Humidity: 86%
Barometer: 30.30 inHg , 1026.1 hPa
Clouds: Few Clouds
Visibility: 10 miles , 16 km
Cloud details: Few Clouds 100 ft
2022/12/05 04:53 PAMR 050453Z 34005KT 10SM FEW001 M07/M09 A3030 RMK AO2 SLP264 T10721094
 
PAED - Elmendorf Afb, Alaska, USA
Distance from station: NE 69mi, 110km
Updated: Sun, 04-Dec-2022 7:55pm AKST
Few Clouds
Few Clouds
 Wind from NNE
Wind: NNE 10 mph , 17 km/h
Temperature: 19°F , -7°C
Wind Chill: 8°F , -13°C
Dew Point: 18°F , -8°C
Humidity: 93%
Barometer: 30.28 inHg , 1025.4 hPa
Clouds: Few Clouds
Visibility: 10 miles , 16 km
Cloud details: Few Clouds 3500 ft
2022/12/05 04:55 PAED 050455Z 02009KT 10SM FEW035 M07/M08 A3028 RMK AO2A SLP253 T10681082
PAWD - Seward, Alaska, USA
Distance from station: ESE 71mi, 115km
Updated: Sun, 04-Dec-2022 7:53pm AKST
Overcast
Overcast
 Wind from NW
Wind: NW 5 mph , 7 km/h
Temperature: 28°F , -2°C
Wind Chill: 22°F , -6°C
Dew Point: 25°F , -4°C
Humidity: 86%
Barometer: 30.30 inHg , 1026.1 hPa
Clouds: Overcast
Visibility: 9 miles , 14 km
Cloud details: Overcast 2900 ft
2022/12/05 04:53 PAWD 050453Z AUTO 32004KT 9SM OVC029 M02/M04 A3030 RMK AO2 SNB38E53 SLP261 P0000 T10171039 TSNO $
 
PASC - Deadhorse, Alaska, USA
Distance from station: ENE 670mi, 1078km
Updated: Sun, 04-Dec-2022 7:53pm AKST
Blowing snow, Few clouds
Blowing snow, Few clouds
 Wind from E
Wind: E 28 mph , 44 km/h, Gust: 33 mph , 54 km/h
Temperature: 10°F , -12°C
Wind Chill: -12°F , -24°C
Dew Point: 5°F , -15°C
Humidity: 79%
Barometer: 29.93 inHg , 1013.5 hPa
Summary: Blowing Snow
Clouds: Few Clouds
Visibility: 7 miles , 11 km
Cloud details: Few Clouds 6500 ft
2022/12/05 04:53 PASC 050453Z 10024G29KT 7SM BLSN FEW065 M12/M15 A2993 RMK AO2 PK WND 10030/0434 SLP138 T11221150 $
PAAD - Point Thomson, Alaska, USA
Distance from station: ENE 680mi, 1094km
Updated: Sun, 04-Dec-2022 8:35pm AKST
Clear
Clear
 Wind from E
Wind: E 33 mph , 54 km/h, Gust: 38 mph , 61 km/h
Temperature: 9°F , -13°C
Wind Chill: -14°F , -26°C
Dew Point: 3°F , -16°C
Humidity: 78%
Barometer: 29.96 inHg , 1014.6 hPa
Clouds: Clear
Visibility: 10 miles , 16 km
2022/12/05 05:35 PAAD 050535Z AUTO 10029G33KT 10SM CLR M13/M16 A2996 RMK AO2 T11341156


kenaipeople.com website

Dans Automotive

Lower Peninsula Power Sports

Freddies RoadHouse

Alaska Weather Net